Terminal Aerodrome Forecast
Issued by NWS

Home | Current Version | Previous Version | Text Only | Print | Product List | Glossary On
Versions: 1 2 3 4 5 6 7 8 9 10 11 12 13 14 15 16 17 18 19
172
FTUS41 KGYX 041327 AAA
TAFRKD
TAF AMD
KRKD 041327Z 0413/0512 11007KT P6SM BKN007 BKN014 OVC023
     FM041900 08008KT P6SM OVC015 PROB30 0422/0424 4SM -RA OVC007
     FM050300 06009KT 4SM -RA BR OVC004
      AMD LTD TO CLD VIS AND WIND=

USA.gov is the U.S. government's official web portal to all federal, state and local government web resources and services.